Time,TemperatureF,DewpointF,PressureIn,WindDirection,WindDirectionDegrees,WindSpeedMPH,WindSpeedGustMPH,Humidity,HourlyPrecipIn,Conditions,Clouds,dailyrainin,SoftwareType,DateUTC
2013-04-17 00:01:00,49.5,49.3,28.34,East,90,9.0,16.0,99,0.00,,,0.00,meteohub,2013-04-17 05:01:00,
2013-04-17 00:06:00,49.5,49.3,28.34,NE,45,8.0,14.0,99,0.00,,,0.00,meteohub,2013-04-17 05:06:00,
2013-04-17 00:11:00,49.6,49.5,28.34,NE,45,12.0,13.0,99,0.00,,,0.00,meteohub,2013-04-17 05:11:00,
2013-04-17 00:16:00,49.6,49.5,28.34,North,0,1.0,12.0,99,0.00,,,0.00,meteohub,2013-04-17 05:16:00,
2013-04-17 00:21:00,49.8,49.5,28.34,NE,45,2.0,12.0,99,0.00,,,0.00,meteohub,2013-04-17 05:21:00,
2013-04-17 00:27:00,49.8,49.5,28.34,North,0,10.0,12.0,99,0.00,,,0.00,meteohub,2013-04-17 05:27:00,
2013-04-17 00:32:00,49.8,49.5,28.34,North,0,1.0,10.0,99,0.00,,,0.00,meteohub,2013-04-17 05:32:00,
2013-04-17 00:37:00,49.8,49.5,28.35,NE,45,2.0,10.0,99,0.00,,,0.00,meteohub,2013-04-17 05:37:00,
2013-04-17 00:42:00,50.0,49.6,28.35,North,0,1.0,10.0,99,0.00,,,0.00,meteohub,2013-04-17 05:42:00,
2013-04-17 00:47:00,50.2,49.8,28.35,NW,315,1.0,2.0,99,0.00,,,0.00,meteohub,2013-04-17 05:47:00,
2013-04-17 00:52:00,50.2,49.8,28.35,North,0,1.0,6.0,99,0.00,,,0.00,meteohub,2013-04-17 05:52:00,
2013-04-17 00:57:00,50.0,49.6,28.35,North,0,0.0,6.0,99,0.00,,,0.00,meteohub,2013-04-17 05:57:00,
2013-04-17 01:02:00,50.4,50.0,28.35,North,0,1.0,2.0,99,0.00,,,0.00,meteohub,2013-04-17 06:02:00,
2013-04-17 01:07:00,50.2,49.8,28.35,NW,315,0.0,1.0,99,0.00,,,0.00,meteohub,2013-04-17 06:07:00,
2013-04-17 01:12:00,50.4,50.0,28.35,West,270,0.0,1.0,99,0.00,,,0.00,meteohub,2013-04-17 06:12:00,
2013-04-17 01:17:00,50.5,50.2,28.35,NW,315,1.0,1.0,99,0.00,,,0.00,meteohub,2013-04-17 06:17:00,
2013-04-17 01:22:00,50.5,50.2,28.35,West,270,0.0,1.0,99,0.00,,,0.00,meteohub,2013-04-17 06:22:00,
2013-04-17 01:27:00,50.4,50.0,28.35,North,0,0.0,1.0,99,0.00,,,0.00,meteohub,2013-04-17 06:27:00,
2013-04-17 01:32:00,50.2,49.8,28.35,NW,315,0.0,2.0,99,0.00,,,0.00,meteohub,2013-04-17 06:32:00,
2013-04-17 01:37:00,49.6,49.5,28.35,North,0,0.0,2.0,99,0.00,,,0.00,meteohub,2013-04-17 06:37:00,
2013-04-17 01:42:00,49.3,49.1,28.35,North,0,0.0,2.0,99,0.00,,,0.00,meteohub,2013-04-17 06:42:00,
2013-04-17 01:47:00,49.5,49.3,28.35,West,270,1.0,1.0,99,0.00,,,0.00,meteohub,2013-04-17 06:47:00,
2013-04-17 01:52:00,49.3,49.1,28.35,West,270,1.0,1.0,99,0.00,,,0.00,meteohub,2013-04-17 06:52:00,
2013-04-17 01:57:00,49.3,49.1,28.34,West,270,1.0,1.0,99,0.00,,,0.00,meteohub,2013-04-17 06:57:00,
2013-04-17 02:02:00,49.5,49.3,28.34,North,0,0.0,1.0,99,0.00,,,0.00,meteohub,2013-04-17 07:02:00,
2013-04-17 02:07:00,49.3,49.1,28.34,North,0,0.0,1.0,99,0.00,,,0.00,meteohub,2013-04-17 07:07:00,
2013-04-17 02:12:00,49.5,49.3,28.33,NE,45,0.0,1.0,99,0.00,,,0.00,meteohub,2013-04-17 07:12:00,
2013-04-17 02:17:00,50.0,49.6,28.33,East,90,1.0,1.0,99,0.00,,,0.00,meteohub,2013-04-17 07:17:00,
2013-04-17 02:22:00,50.4,50.0,28.33,NE,45,1.0,1.0,99,0.00,,,0.00,meteohub,2013-04-17 07:22:00,
2013-04-17 02:27:00,50.7,50.4,28.33,East,90,0.0,1.0,99,0.00,,,0.00,meteohub,2013-04-17 07:27:00,
2013-04-17 02:32:00,51.1,50.7,28.33,NE,45,1.0,1.0,99,0.00,,,0.00,meteohub,2013-04-17 07:32:00,
2013-04-17 02:37:00,51.3,50.9,28.33,NE,45,0.0,1.0,99,0.00,,,0.00,meteohub,2013-04-17 07:37:00,
2013-04-17 02:42:00,51.3,50.9,28.33,NE,45,1.0,2.0,99,0.00,,,0.00,meteohub,2013-04-17 07:42:00,
2013-04-17 02:47:00,51.4,51.1,28.32,NE,45,2.0,2.0,99,0.00,,,0.00,meteohub,2013-04-17 07:47:00,
2013-04-17 02:52:00,51.6,51.3,28.32,NE,45,2.0,2.0,99,0.00,,,0.00,meteohub,2013-04-17 07:52:00,
2013-04-17 02:57:00,51.6,51.3,28.32,NE,45,1.0,2.0,99,0.00,,,0.00,meteohub,2013-04-17 07:57:00,
2013-04-17 03:02:00,51.4,51.1,28.32,NE,45,2.0,2.0,99,0.00,,,0.00,meteohub,2013-04-17 08:02:00,
2013-04-17 03:08:00,51.8,51.4,28.32,NE,45,0.0,2.0,99,0.00,,,0.00,meteohub,2013-04-17 08:08:00,
2013-04-17 03:13:00,51.8,51.4,28.32,NE,45,1.0,2.0,99,0.00,,,0.00,meteohub,2013-04-17 08:13:00,
2013-04-17 03:18:00,51.8,51.4,28.31,NE,45,0.0,2.0,99,0.00,,,0.00,meteohub,2013-04-17 08:18:00,
2013-04-17 03:23:00,52.2,51.8,28.31,NE,45,1.0,2.0,99,0.00,,,0.00,meteohub,2013-04-17 08:23:00,
2013-04-17 03:28:00,52.2,51.8,28.31,NE,45,1.0,2.0,99,0.00,,,0.00,meteohub,2013-04-17 08:28:00,
2013-04-17 03:33:00,52.0,51.6,28.31,NE,45,1.0,2.0,99,0.00,,,0.00,meteohub,2013-04-17 08:33:00,
2013-04-17 03:38:00,52.2,51.8,28.31,NE,45,0.0,9.0,99,0.00,,,0.00,meteohub,2013-04-17 08:38:00,
2013-04-17 03:43:00,52.3,52.0,28.30,NE,45,1.0,9.0,99,0.00,,,0.00,meteohub,2013-04-17 08:43:00,
2013-04-17 03:48:00,52.0,51.6,28.30,East,90,0.0,8.0,99,0.00,,,0.00,meteohub,2013-04-17 08:48:00,
2013-04-17 03:53:00,52.3,52.0,28.30,NE,45,8.0,8.0,99,0.00,,,0.00,meteohub,2013-04-17 08:53:00,
2013-04-17 03:58:00,52.2,51.8,28.30,East,90,0.0,8.0,99,0.00,,,0.00,meteohub,2013-04-17 08:58:00,
2013-04-17 04:03:00,52.3,52.0,28.30,NE,45,0.0,10.0,99,0.00,,,0.00,meteohub,2013-04-17 09:03:00,
2013-04-17 04:08:00,52.7,52.3,28.30,East,90,0.0,10.0,99,0.00,,,0.00,meteohub,2013-04-17 09:08:00,
2013-04-17 04:13:00,52.7,52.3,28.30,NE,45,0.0,6.0,99,0.00,,,0.00,meteohub,2013-04-17 09:13:00,
2013-04-17 04:18:00,52.9,52.5,28.29,NE,45,1.0,2.0,99,0.00,,,0.00,meteohub,2013-04-17 09:18:00,
2013-04-17 04:23:00,52.9,52.5,28.30,NE,45,0.0,1.0,99,0.00,,,0.00,meteohub,2013-04-17 09:23:00,
2013-04-17 04:28:00,53.1,52.7,28.30,East,90,1.0,2.0,99,0.00,,,0.00,meteohub,2013-04-17 09:28:00,
2013-04-17 04:33:00,53.6,53.2,28.30,NE,45,1.0,2.0,99,0.00,,,0.00,meteohub,2013-04-17 09:33:00,
2013-04-17 04:38:00,53.8,53.4,28.30,NE,45,2.0,2.0,99,0.00,,,0.00,meteohub,2013-04-17 09:38:00,
2013-04-17 04:43:00,54.0,53.6,28.30,ENE,68,0.0,2.0,99,0.00,,,0.00,meteohub,2013-04-17 09:43:00,
2013-04-17 04:48:00,54.1,53.8,28.29,NE,45,1.0,2.0,99,0.00,,,0.00,meteohub,2013-04-17 09:48:00,
2013-04-17 04:53:00,54.3,54.0,28.29,NE,45,1.0,2.0,99,0.00,,,0.00,meteohub,2013-04-17 09:53:00,
2013-04-17 04:58:00,54.7,54.3,28.29,East,90,0.0,2.0,99,0.00,,,0.00,meteohub,2013-04-17 09:58:00,
2013-04-17 05:03:00,54.7,54.3,28.29,NE,45,0.0,2.0,99,0.00,,,0.00,meteohub,2013-04-17 10:03:00,
2013-04-17 05:08:00,55.4,55.0,28.29,East,90,0.0,1.0,99,0.00,,,0.00,meteohub,2013-04-17 10:08:00,
2013-04-17 05:13:00,56.1,55.8,28.28,East,90,1.0,3.0,99,0.00,,,0.00,meteohub,2013-04-17 10:13:00,
2013-04-17 05:18:00,56.3,55.9,28.28,East,90,1.0,3.0,99,0.00,,,0.00,meteohub,2013-04-17 10:18:00,
2013-04-17 05:23:00,56.8,56.5,28.28,East,90,0.0,3.0,99,0.00,,,0.00,meteohub,2013-04-17 10:23:00,
2013-04-17 05:28:00,57.2,56.8,28.28,East,90,1.0,1.0,99,0.00,,,0.00,meteohub,2013-04-17 10:28:00,
2013-04-17 05:33:00,57.6,57.2,28.28,East,90,0.0,1.0,99,0.00,,,0.00,meteohub,2013-04-17 10:33:00,
2013-04-17 05:38:00,57.9,57.6,28.28,East,90,1.0,1.0,99,0.00,,,0.00,meteohub,2013-04-17 10:38:00,
2013-04-17 05:43:00,58.1,57.7,28.27,East,90,0.0,1.0,99,0.00,,,0.00,meteohub,2013-04-17 10:43:00,
2013-04-17 05:48:00,58.8,58.5,28.28,East,90,0.0,1.0,99,0.00,,,0.00,meteohub,2013-04-17 10:48:00,
2013-04-17 05:53:00,59.2,58.8,28.27,East,90,1.0,1.0,99,0.00,,,0.00,meteohub,2013-04-17 10:53:00,
2013-04-17 05:58:00,59.5,59.2,28.28,ENE,68,0.0,1.0,99,0.00,,,0.00,meteohub,2013-04-17 10:58:00,
2013-04-17 06:03:00,59.5,59.2,28.27,East,90,0.0,1.0,99,0.00,,,0.00,meteohub,2013-04-17 11:03:00,
2013-04-17 06:09:00,60.1,59.7,28.27,East,90,0.0,2.0,99,0.00,,,0.00,meteohub,2013-04-17 11:09:00,
2013-04-17 06:14:00,60.3,59.9,28.27,East,90,0.0,2.0,99,0.00,,,0.00,meteohub,2013-04-17 11:14:00,
2013-04-17 06:19:00,60.8,60.4,28.27,East,90,0.0,2.0,99,0.00,,,0.00,meteohub,2013-04-17 11:19:00,
2013-04-17 06:24:00,61.5,61.2,28.27,NE,45,1.0,1.0,99,0.00,,,0.00,meteohub,2013-04-17 11:24:00,
2013-04-17 06:29:00,62.2,61.9,28.27,East,90,6.0,6.0,99,0.00,,,0.00,meteohub,2013-04-17 11:29:00,
2013-04-17 06:34:00,62.2,61.9,28.27,East,90,5.0,8.0,99,0.00,,,0.00,meteohub,2013-04-17 11:34:00,
2013-04-17 06:39:00,62.8,62.4,28.27,East,90,8.0,8.0,99,0.00,,,0.00,meteohub,2013-04-17 11:39:00,
2013-04-17 06:44:00,63.0,62.6,28.27,SE,135,8.0,8.0,99,0.00,,,0.00,meteohub,2013-04-17 11:44:00,
2013-04-17 06:49:00,63.0,62.6,28.27,East,90,8.0,9.0,99,0.00,,,0.00,meteohub,2013-04-17 11:49:00,
2013-04-17 06:54:00,63.0,62.6,28.27,SE,135,8.0,10.0,99,0.00,,,0.00,meteohub,2013-04-17 11:54:00,
2013-04-17 06:59:00,63.3,63.0,28.27,East,90,10.0,10.0,99,0.00,,,0.00,meteohub,2013-04-17 11:59:00,
2013-04-17 07:04:00,63.3,63.0,28.27,East,90,10.0,10.0,99,0.00,,,0.00,meteohub,2013-04-17 12:04:00,
2013-04-17 07:09:00,63.7,63.3,28.27,East,90,5.0,10.0,99,0.00,,,0.00,meteohub,2013-04-17 12:09:00,
2013-04-17 07:14:00,63.7,63.3,28.28,SE,135,5.0,10.0,99,0.00,,,0.00,meteohub,2013-04-17 12:14:00,
2013-04-17 07:19:00,63.5,63.1,28.28,East,90,1.0,10.0,99,0.00,,,0.00,meteohub,2013-04-17 12:19:00,
2013-04-17 07:24:00,63.3,63.0,28.28,East,90,1.0,10.0,99,0.00,,,0.00,meteohub,2013-04-17 12:24:00,
2013-04-17 07:29:00,63.5,63.1,28.28,East,90,0.0,10.0,99,0.00,,,0.00,meteohub,2013-04-17 12:29:00,
2013-04-17 07:34:00,63.5,63.1,28.29,SE,135,0.0,6.0,99,0.00,,,0.00,meteohub,2013-04-17 12:34:00,
2013-04-17 07:39:00,63.7,63.3,28.29,East,90,1.0,1.0,99,0.00,,,0.00,meteohub,2013-04-17 12:39:00,
2013-04-17 07:44:00,63.5,63.1,28.29,South,180,0.0,1.0,99,0.00,,,0.00,meteohub,2013-04-17 12:44:00,
2013-04-17 07:49:00,62.2,61.3,28.29,West,270,4.0,4.0,97,0.00,,,0.00,meteohub,2013-04-17 12:49:00,
2013-04-17 07:54:00,61.5,60.6,28.29,NW,315,1.0,1.0,97,0.00,,,0.00,meteohub,2013-04-17 12:54:00,
2013-04-17 07:59:00,61.0,60.6,28.29,NW,315,2.0,7.0,99,0.00,,,0.00,meteohub,2013-04-17 12:59:00,
2013-04-17 08:04:00,61.0,60.6,28.29,NW,315,4.0,7.0,99,0.00,,,0.00,meteohub,2013-04-17 13:04:00,
2013-04-17 08:09:00,60.8,60.4,28.30,SW,225,11.0,11.0,99,0.00,,,0.00,meteohub,2013-04-17 13:09:00,
2013-04-17 08:14:00,60.6,60.3,28.29,NW,315,1.0,7.0,99,0.00,,,0.00,meteohub,2013-04-17 13:14:00,
2013-04-17 08:19:00,60.3,59.7,28.30,West,270,1.0,11.0,98,0.00,,,0.00,meteohub,2013-04-17 13:19:00,
2013-04-17 08:24:00,59.9,59.0,28.30,WSW,248,14.0,14.0,97,0.00,,,0.00,meteohub,2013-04-17 13:24:00,
2013-04-17 08:29:00,59.9,59.4,28.29,WNW,293,2.0,14.0,98,0.00,,,0.00,meteohub,2013-04-17 13:29:00,
2013-04-17 08:34:00,59.7,58.6,28.29,NE,45,8.0,15.0,96,0.00,,,0.00,meteohub,2013-04-17 13:34:00,
2013-04-17 08:39:00,59.4,58.3,28.30,NW,315,2.0,15.0,96,0.00,,,0.00,meteohub,2013-04-17 13:39:00,
2013-04-17 08:44:00,59.0,57.2,28.29,WNW,293,4.0,15.0,94,0.00,,,0.00,meteohub,2013-04-17 13:44:00,
2013-04-17 08:49:00,58.5,57.4,28.29,NW,315,4.0,15.0,96,0.00,,,0.00,meteohub,2013-04-17 13:49:00,
2013-04-17 08:54:00,58.3,57.4,28.30,NW,315,1.0,10.0,97,0.00,,,0.00,meteohub,2013-04-17 13:54:00,
2013-04-17 08:59:00,57.9,57.0,28.29,NW,315,1.0,10.0,97,0.00,,,0.00,meteohub,2013-04-17 13:59:00,
2013-04-17 09:04:00,57.4,56.5,28.29,West,270,4.0,6.0,97,0.00,,,0.00,meteohub,2013-04-17 14:04:00,
2013-04-17 09:09:00,57.6,56.7,28.29,North,0,1.0,6.0,97,0.00,,,0.00,meteohub,2013-04-17 14:09:00,
2013-04-17 09:14:00,57.6,56.7,28.29,North,0,3.0,4.0,97,0.00,,,0.00,meteohub,2013-04-17 14:14:00,
2013-04-17 09:20:00,57.7,57.2,28.29,West,270,1.0,7.0,98,0.00,,,0.00,meteohub,2013-04-17 14:20:00,
2013-04-17 09:24:00,57.9,57.6,28.29,North,0,1.0,7.0,99,0.00,,,0.00,meteohub,2013-04-17 14:24:00,
2013-04-17 09:30:00,58.1,57.7,28.28,North,0,1.0,7.0,99,0.00,,,0.00,meteohub,2013-04-17 14:30:00,
2013-04-17 09:35:00,58.8,58.3,28.28,North,0,2.0,2.0,98,0.00,,,0.00,meteohub,2013-04-17 14:35:00,
2013-04-17 09:40:00,58.8,58.3,28.27,NNW,338,1.0,2.0,98,0.00,,,0.00,meteohub,2013-04-17 14:40:00,
2013-04-17 09:45:00,59.2,58.6,28.27,NE,45,1.0,2.0,98,0.00,,,0.00,meteohub,2013-04-17 14:45:00,
2013-04-17 09:50:00,59.5,59.2,28.27,NE,45,1.0,2.0,99,0.00,,,0.00,meteohub,2013-04-17 14:50:00,
2013-04-17 09:55:00,60.3,59.9,28.27,NE,45,0.0,2.0,99,0.00,,,0.00,meteohub,2013-04-17 14:55:00,
2013-04-17 10:00:00,60.8,60.3,28.27,East,90,0.0,1.0,98,0.00,,,0.00,meteohub,2013-04-17 15:00:00,
2013-04-17 10:05:00,61.2,60.6,28.27,West,270,4.0,4.0,98,0.00,,,0.00,meteohub,2013-04-17 15:05:00,
2013-04-17 10:10:00,61.5,60.6,28.27,West,270,1.0,6.0,97,0.00,,,0.00,meteohub,2013-04-17 15:10:00,
2013-04-17 10:15:00,60.8,59.7,28.27,NW,315,1.0,6.0,96,0.00,,,0.00,meteohub,2013-04-17 15:15:00,
2013-04-17 10:20:00,60.8,59.7,28.27,NW,315,2.0,7.0,96,0.00,,,0.00,meteohub,2013-04-17 15:20:00,
2013-04-17 10:25:00,60.8,59.9,28.27,NW,315,2.0,7.0,97,0.00,,,0.00,meteohub,2013-04-17 15:25:00,
2013-04-17 10:30:00,61.2,60.3,28.26,NE,45,0.0,7.0,97,0.00,,,0.00,meteohub,2013-04-17 15:30:00,
2013-04-17 10:35:00,61.5,60.6,28.26,NE,45,1.0,2.0,97,0.00,,,0.00,meteohub,2013-04-17 15:35:00,
2013-04-17 10:40:00,62.4,61.5,28.26,East,90,0.0,1.0,97,0.00,,,0.00,meteohub,2013-04-17 15:40:00,
2013-04-17 10:45:00,63.3,62.4,28.25,NE,45,0.0,1.0,97,0.00,,,0.00,meteohub,2013-04-17 15:45:00,
2013-04-17 10:50:00,64.4,63.3,28.25,East,90,1.0,1.0,96,0.00,,,0.00,meteohub,2013-04-17 15:50:00,
2013-04-17 10:55:00,64.9,63.5,28.25,NE,45,0.0,1.0,95,0.00,,,0.00,meteohub,2013-04-17 15:55:00,
2013-04-17 11:00:00,65.7,64.4,28.24,East,90,0.0,1.0,96,0.00,,,0.00,meteohub,2013-04-17 16:00:00,
2013-04-17 11:05:00,66.6,65.3,28.24,East,90,1.0,2.0,96,0.00,,,0.00,meteohub,2013-04-17 16:05:00,
2013-04-17 11:10:00,67.3,66.0,28.24,East,90,8.0,8.0,96,0.00,,,0.00,meteohub,2013-04-17 16:10:00,
2013-04-17 11:15:00,68.2,66.9,28.24,East,90,7.0,10.0,96,0.00,,,0.00,meteohub,2013-04-17 16:15:00,
2013-04-17 11:20:00,68.5,67.3,28.24,East,90,8.0,10.0,96,0.00,,,0.00,meteohub,2013-04-17 16:20:00,
2013-04-17 11:25:00,68.9,67.6,28.23,East,90,8.0,11.0,96,0.00,,,0.00,meteohub,2013-04-17 16:25:00,
2013-04-17 11:30:00,69.4,68.2,28.23,East,90,8.0,11.0,96,0.00,,,0.00,meteohub,2013-04-17 16:30:00,
2013-04-17 11:35:00,69.8,68.5,28.23,East,90,8.0,11.0,96,0.00,,,0.00,meteohub,2013-04-17 16:35:00,
2013-04-17 11:40:00,70.7,69.4,28.22,East,90,13.0,13.0,96,0.00,,,0.00,meteohub,2013-04-17 16:40:00,
2013-04-17 11:45:00,71.6,70.3,28.22,SE,135,13.0,14.0,96,0.00,,,0.00,meteohub,2013-04-17 16:45:00,
2013-04-17 11:50:00,72.3,70.9,28.22,NE,45,14.0,17.0,95,0.00,,,0.00,meteohub,2013-04-17 16:50:00,
2013-04-17 11:55:00,72.9,71.1,28.22,South,180,13.0,17.0,94,0.00,,,0.00,meteohub,2013-04-17 16:55:00,
2013-04-17 12:00:00,73.6,71.1,28.21,East,90,13.0,17.0,92,0.00,,,0.00,meteohub,2013-04-17 17:00:00,
2013-04-17 12:05:00,74.1,71.2,28.21,East,90,14.0,17.0,91,0.00,,,0.00,meteohub,2013-04-17 17:05:00,
2013-04-17 12:10:00,74.3,70.9,28.20,East,90,21.0,21.0,89,0.00,,,0.00,meteohub,2013-04-17 17:10:00,
2013-04-17 12:15:00,73.9,70.5,28.22,NNW,338,16.0,21.0,89,0.00,,,0.00,meteohub,2013-04-17 17:15:00,
2013-04-17 12:20:00,72.1,67.1,28.23,South,180,12.0,21.0,84,0.00,,,0.00,meteohub,2013-04-17 17:20:00,
2013-04-17 12:25:00,71.8,69.6,28.21,East,90,23.0,23.0,93,0.00,,,0.00,meteohub,2013-04-17 17:25:00,
2013-04-17 12:30:00,73.4,70.3,28.21,SE,135,15.0,23.0,90,0.00,,,0.00,meteohub,2013-04-17 17:30:00,
2013-04-17 12:35:00,73.8,70.0,28.21,SE,135,17.0,23.0,88,0.00,,,0.00,meteohub,2013-04-17 17:35:00,
2013-04-17 12:40:00,74.1,70.3,28.21,South,180,11.0,23.0,88,0.00,,,0.00,meteohub,2013-04-17 17:40:00,
2013-04-17 12:45:00,74.3,70.2,28.22,East,90,17.0,18.0,87,0.00,,,0.00,meteohub,2013-04-17 17:45:00,
2013-04-17 12:50:00,74.1,70.0,28.21,SE,135,9.0,17.0,87,0.00,,,0.00,meteohub,2013-04-17 17:50:00,
2013-04-17 12:55:00,74.1,70.3,28.21,ENE,68,1.0,17.0,88,0.00,,,0.00,meteohub,2013-04-17 17:55:00,
2013-04-17 13:00:00,74.7,69.8,28.20,SE,135,11.0,17.0,85,0.00,,,0.00,meteohub,2013-04-17 18:00:00,
2013-04-17 13:05:00,74.8,70.0,28.20,South,180,11.0,17.0,85,0.00,,,0.00,meteohub,2013-04-17 18:05:00,
2013-04-17 13:10:00,75.0,69.8,28.20,South,180,11.0,17.0,84,0.00,,,0.00,meteohub,2013-04-17 18:10:00,
2013-04-17 13:15:00,75.2,70.0,28.20,South,180,11.0,14.0,84,0.00,,,0.00,meteohub,2013-04-17 18:15:00,
2013-04-17 13:20:00,75.7,70.2,28.19,South,180,11.0,14.0,83,0.00,,,0.00,meteohub,2013-04-17 18:20:00,
2013-04-17 13:25:00,77.4,71.1,28.18,SE,135,13.0,16.0,81,0.00,,,0.00,meteohub,2013-04-17 18:25:00,
2013-04-17 13:30:00,78.3,70.5,28.18,SE,135,18.0,18.0,77,0.00,,,0.00,meteohub,2013-04-17 18:30:00,
2013-04-17 13:36:00,79.2,70.5,28.18,SE,135,15.0,18.0,75,0.00,,,0.00,meteohub,2013-04-17 18:36:00,
2013-04-17 13:41:00,79.2,70.2,28.16,East,90,21.0,21.0,74,0.00,,,0.00,meteohub,2013-04-17 18:41:00,
2013-04-17 13:46:00,79.2,70.2,28.14,SE,135,22.0,22.0,74,0.00,,,0.00,meteohub,2013-04-17 18:46:00,
2013-04-17 13:51:00,78.8,69.8,28.14,SE,135,14.0,27.0,74,0.01,,,0.01,meteohub,2013-04-17 18:51:00,
2013-04-17 13:56:00,78.3,69.6,28.14,South,180,21.0,27.0,75,0.01,,,0.01,meteohub,2013-04-17 18:56:00,
2013-04-17 14:01:00,77.9,69.8,28.14,SE,135,13.0,27.0,76,0.01,,,0.01,meteohub,2013-04-17 19:01:00,
2013-04-17 14:06:00,75.7,63.1,28.16,NW,315,15.0,21.0,65,0.01,,,0.01,meteohub,2013-04-17 19:06:00,
2013-04-17 14:11:00,67.3,59.9,28.17,NW,315,7.0,21.0,77,0.01,,,0.01,meteohub,2013-04-17 19:11:00,
2013-04-17 14:16:00,64.6,59.9,28.16,East,90,1.0,17.0,85,0.01,,,0.01,meteohub,2013-04-17 19:16:00,
2013-04-17 14:21:00,63.9,60.6,28.17,NW,315,6.0,15.0,89,0.01,,,0.01,meteohub,2013-04-17 19:21:00,
2013-04-17 14:26:00,63.3,60.1,28.17,NW,315,9.0,14.0,89,0.01,,,0.01,meteohub,2013-04-17 19:26:00,
2013-04-17 14:31:00,63.0,60.3,28.16,West,270,15.0,15.0,91,0.01,,,0.01,meteohub,2013-04-17 19:31:00,
2013-04-17 14:36:00,63.0,60.3,28.18,SW,225,8.0,15.0,91,0.01,,,0.01,meteohub,2013-04-17 19:36:00,
2013-04-17 14:42:00,62.2,58.6,28.17,North,0,8.0,15.0,88,0.01,,,0.01,meteohub,2013-04-17 19:42:00,
2013-04-17 14:47:00,62.1,58.8,28.17,North,0,6.0,15.0,89,0.01,,,0.01,meteohub,2013-04-17 19:47:00,
2013-04-17 14:52:00,61.2,57.9,28.16,North,0,9.0,13.0,89,0.00,,,0.01,meteohub,2013-04-17 19:52:00,
2013-04-17 14:57:00,61.2,58.8,28.16,North,0,4.0,11.0,92,0.00,,,0.01,meteohub,2013-04-17 19:57:00,
2013-04-17 15:02:00,62.2,60.3,28.14,NW,315,1.0,11.0,93,0.00,,,0.01,meteohub,2013-04-17 20:02:00,
2013-04-17 15:07:00,63.9,60.8,28.15,NW,315,8.0,11.0,90,0.00,,,0.01,meteohub,2013-04-17 20:07:00,
2013-04-17 15:12:00,65.1,62.1,28.14,NW,315,5.0,8.0,90,0.00,,,0.01,meteohub,2013-04-17 20:12:00,
2013-04-17 15:17:00,66.6,61.9,28.14,NW,315,8.0,8.0,85,0.00,,,0.01,meteohub,2013-04-17 20:17:00,
2013-04-17 15:22:00,66.2,61.9,28.15,NW,315,4.0,8.0,86,0.00,,,0.01,meteohub,2013-04-17 20:22:00,
2013-04-17 15:27:00,66.4,62.4,28.14,NW,315,5.0,8.0,87,0.00,,,0.01,meteohub,2013-04-17 20:27:00,
2013-04-17 15:32:00,66.6,62.2,28.13,North,0,7.0,8.0,86,0.00,,,0.01,meteohub,2013-04-17 20:32:00,
2013-04-17 15:37:00,67.3,62.6,28.14,NE,45,7.0,10.0,85,0.00,,,0.01,meteohub,2013-04-17 20:37:00,
2013-04-17 15:42:00,67.8,62.8,28.14,North,0,1.0,10.0,84,0.00,,,0.01,meteohub,2013-04-17 20:42:00,
2013-04-17 15:47:00,68.2,63.5,28.12,West,270,6.0,10.0,85,0.00,,,0.01,meteohub,2013-04-17 20:47:00,
2013-04-17 15:52:00,69.1,64.0,28.13,North,0,4.0,8.0,84,0.00,,,0.01,meteohub,2013-04-17 20:52:00,
2013-04-17 15:57:00,70.5,65.1,28.12,NW,315,4.0,8.0,83,0.00,,,0.01,meteohub,2013-04-17 20:57:00,
2013-04-17 16:02:00,71.2,64.8,28.12,North,0,2.0,8.0,80,0.00,,,0.01,meteohub,2013-04-17 21:02:00,
2013-04-17 16:07:00,71.8,67.1,28.11,NE,45,2.0,6.0,85,0.00,,,0.01,meteohub,2013-04-17 21:07:00,
2013-04-17 16:12:00,72.1,66.7,28.10,NE,45,11.0,11.0,83,0.00,,,0.01,meteohub,2013-04-17 21:12:00,
2013-04-17 16:17:00,71.8,66.7,28.09,NE,45,13.0,13.0,84,0.00,,,0.01,meteohub,2013-04-17 21:17:00,
2013-04-17 16:22:00,70.0,65.3,28.09,NE,45,7.0,15.0,85,0.00,,,0.01,meteohub,2013-04-17 21:22:00,
2013-04-17 16:27:00,69.4,65.1,28.09,North,0,7.0,15.0,86,0.00,,,0.01,meteohub,2013-04-17 21:27:00,
2013-04-17 16:32:00,68.5,65.1,28.09,East,90,10.0,16.0,89,0.00,,,0.01,meteohub,2013-04-17 21:32:00,
2013-04-17 16:37:00,68.4,65.3,28.09,NE,45,11.0,16.0,90,0.00,,,0.01,meteohub,2013-04-17 21:37:00,
2013-04-17 16:42:00,68.5,65.1,28.07,NE,45,14.0,16.0,89,0.00,,,0.01,meteohub,2013-04-17 21:42:00,
2013-04-17 16:47:00,67.6,64.9,28.09,ENE,68,10.0,15.0,91,0.00,,,0.01,meteohub,2013-04-17 21:47:00,
2013-04-17 16:52:00,67.1,64.8,28.09,NE,45,15.0,15.0,92,0.00,,,0.01,meteohub,2013-04-17 21:52:00,
2013-04-17 16:57:00,65.3,63.5,28.09,NE,45,11.0,16.0,94,0.01,,,0.02,meteohub,2013-04-17 21:57:00,
2013-04-17 17:02:00,64.4,63.3,28.09,East,90,12.0,16.0,96,0.02,,,0.04,meteohub,2013-04-17 22:02:00,
2013-04-17 17:07:00,63.9,63.3,28.07,NE,45,18.0,18.0,98,0.04,,,0.05,meteohub,2013-04-17 22:07:00,
2013-04-17 17:12:00,62.8,61.9,28.04,NE,45,17.0,18.0,97,0.05,,,0.06,meteohub,2013-04-17 22:12:00,
2013-04-17 17:17:00,62.2,61.9,28.06,North,0,7.0,19.0,99,0.06,,,0.07,meteohub,2013-04-17 22:17:00,
2013-04-17 17:22:00,62.1,61.7,28.06,NE,45,11.0,19.0,99,0.06,,,0.07,meteohub,2013-04-17 22:22:00,
2013-04-17 17:27:00,61.3,61.0,28.05,North,0,14.0,19.0,99,0.06,,,0.07,meteohub,2013-04-17 22:27:00,
2013-04-17 17:32:00,60.8,60.4,28.05,WNW,293,16.0,16.0,99,0.06,,,0.07,meteohub,2013-04-17 22:32:00,
2013-04-17 17:37:00,60.4,60.1,28.04,North,0,10.0,16.0,99,0.06,,,0.07,meteohub,2013-04-17 22:37:00,
2013-04-17 17:42:00,60.4,60.1,28.08,North,0,6.0,18.0,99,0.07,,,0.08,meteohub,2013-04-17 22:42:00,
2013-04-17 17:47:00,60.6,60.3,28.08,NW,315,5.0,18.0,99,0.07,,,0.08,meteohub,2013-04-17 22:47:00,
2013-04-17 17:52:00,60.8,60.4,28.07,North,0,8.0,16.0,99,0.08,,,0.09,meteohub,2013-04-17 22:52:00,
2013-04-17 17:57:00,60.8,60.4,28.07,North,0,1.0,13.0,99,0.07,,,0.09,meteohub,2013-04-17 22:57:00,
2013-04-17 18:02:00,60.6,60.3,28.07,North,0,11.0,11.0,99,0.06,,,0.09,meteohub,2013-04-17 23:02:00,
2013-04-17 18:07:00,60.4,60.1,28.06,NE,45,15.0,15.0,99,0.04,,,0.09,meteohub,2013-04-17 23:07:00,
2013-04-17 18:12:00,60.6,60.3,28.05,NW,315,11.0,17.0,99,0.02,,,0.09,meteohub,2013-04-17 23:12:00,
2013-04-17 18:18:00,60.3,59.9,28.06,North,0,13.0,17.0,99,0.02,,,0.09,meteohub,2013-04-17 23:18:00,
2013-04-17 18:23:00,59.2,58.8,28.04,North,0,14.0,17.0,99,0.02,,,0.09,meteohub,2013-04-17 23:23:00,
2013-04-17 18:28:00,58.8,58.5,28.05,NE,45,17.0,17.0,99,0.02,,,0.09,meteohub,2013-04-17 23:28:00,
2013-04-17 18:33:00,58.5,58.1,28.06,North,0,7.0,17.0,99,0.02,,,0.09,meteohub,2013-04-17 23:33:00,
2013-04-17 18:38:00,58.3,57.9,28.06,NE,45,12.0,17.0,99,0.02,,,0.09,meteohub,2013-04-17 23:38:00,
2013-04-17 18:43:00,58.6,58.3,28.07,North,0,8.0,17.0,99,0.01,,,0.09,meteohub,2013-04-17 23:43:00,
2013-04-17 18:48:00,58.6,58.3,28.06,NE,45,9.0,16.0,99,0.01,,,0.09,meteohub,2013-04-17 23:48:00,
2013-04-17 18:53:00,58.8,58.5,28.05,NE,45,13.0,15.0,99,0.00,,,0.09,meteohub,2013-04-17 23:53:00,
2013-04-17 18:58:00,58.5,58.1,28.05,NE,45,20.0,20.0,99,0.00,,,0.09,meteohub,2013-04-17 23:58:00,
2013-04-17 19:03:00,58.3,57.9,28.06,NE,45,12.0,20.0,99,0.00,,,0.09,meteohub,2013-04-18 00:03:00,
2013-04-17 19:08:00,58.1,57.7,28.07,East,90,15.0,20.0,99,0.00,,,0.00,meteohub,2013-04-18 00:08:00,
2013-04-17 19:13:00,57.4,57.0,28.08,East,90,2.0,20.0,99,0.00,,,0.00,meteohub,2013-04-18 00:13:00,
2013-04-17 19:18:00,57.0,56.7,28.05,North,0,11.0,17.0,99,0.01,,,0.01,meteohub,2013-04-18 00:18:00,
2013-04-17 19:23:00,56.5,56.1,28.07,NE,45,10.0,17.0,99,0.02,,,0.02,meteohub,2013-04-18 00:23:00,
2013-04-17 19:28:00,56.5,56.1,28.06,North,0,5.0,15.0,99,0.02,,,0.02,meteohub,2013-04-18 00:28:00,
2013-04-17 19:33:00,56.5,56.1,28.06,North,0,2.0,15.0,99,0.02,,,0.02,meteohub,2013-04-18 00:33:00,
2013-04-17 19:38:00,56.3,55.9,28.04,North,0,8.0,15.0,99,0.02,,,0.02,meteohub,2013-04-18 00:38:00,
2013-04-17 19:43:00,56.5,56.1,28.04,NE,45,1.0,11.0,99,0.02,,,0.02,meteohub,2013-04-18 00:43:00,
2013-04-17 19:48:00,56.7,56.3,28.04,North,0,2.0,11.0,99,0.02,,,0.02,meteohub,2013-04-18 00:48:00,
2013-04-17 19:53:00,56.5,56.1,28.03,NE,45,12.0,12.0,99,0.02,,,0.02,meteohub,2013-04-18 00:53:00,
2013-04-17 19:58:00,56.5,56.1,28.05,NE,45,4.0,12.0,99,0.02,,,0.02,meteohub,2013-04-18 00:58:00,
2013-04-17 20:03:00,56.3,55.9,28.06,North,0,1.0,12.0,99,0.02,,,0.02,meteohub,2013-04-18 01:03:00,
2013-04-17 20:08:00,56.1,55.8,28.06,NE,45,2.0,12.0,99,0.02,,,0.02,meteohub,2013-04-18 01:08:00,
2013-04-17 20:13:00,55.9,55.6,28.06,North,0,1.0,10.0,99,0.02,,,0.02,meteohub,2013-04-18 01:13:00,
2013-04-17 20:18:00,55.6,55.2,28.05,West,270,8.0,8.0,99,0.01,,,0.02,meteohub,2013-04-18 01:18:00,
2013-04-17 20:23:00,55.2,54.9,28.06,North,0,4.0,10.0,99,0.00,,,0.02,meteohub,2013-04-18 01:23:00,
2013-04-17 20:28:00,54.7,54.3,28.06,North,0,8.0,11.0,99,0.00,,,0.02,meteohub,2013-04-18 01:28:00,
2013-04-17 20:33:00,54.7,54.3,28.06,North,0,10.0,11.0,99,0.00,,,0.02,meteohub,2013-04-18 01:33:00,
2013-04-17 20:38:00,54.5,54.1,28.07,North,0,8.0,13.0,99,0.00,,,0.02,meteohub,2013-04-18 01:38:00,
2013-04-17 20:43:00,54.5,54.1,28.07,North,0,4.0,13.0,99,0.00,,,0.02,meteohub,2013-04-18 01:43:00,
2013-04-17 20:48:00,54.3,54.0,28.06,North,0,5.0,13.0,99,0.00,,,0.02,meteohub,2013-04-18 01:48:00,
2013-04-17 20:53:00,54.0,53.6,28.08,North,0,7.0,12.0,99,0.00,,,0.02,meteohub,2013-04-18 01:53:00,
2013-04-17 20:59:00,53.2,52.9,28.08,North,0,8.0,11.0,99,0.00,,,0.02,meteohub,2013-04-18 01:59:00,
2013-04-17 21:04:00,53.1,52.7,28.09,NW,315,8.0,9.0,99,0.00,,,0.02,meteohub,2013-04-18 02:04:00,
2013-04-17 21:09:00,52.2,51.8,28.10,North,0,8.0,11.0,99,0.00,,,0.02,meteohub,2013-04-18 02:09:00,
2013-04-17 21:14:00,51.8,51.4,28.10,NW,315,11.0,11.0,99,0.00,,,0.02,meteohub,2013-04-18 02:14:00,
2013-04-17 21:19:00,51.4,51.1,28.10,NW,315,9.0,11.0,99,0.00,,,0.02,meteohub,2013-04-18 02:19:00,
2013-04-17 21:24:00,51.3,50.9,28.11,WNW,293,10.0,12.0,99,0.00,,,0.02,meteohub,2013-04-18 02:24:00,
2013-04-17 21:29:00,51.1,50.7,28.12,North,0,11.0,16.0,99,0.00,,,0.02,meteohub,2013-04-18 02:29:00,
2013-04-17 21:34:00,50.9,50.5,28.12,NW,315,14.0,16.0,99,0.00,,,0.02,meteohub,2013-04-18 02:34:00,
2013-04-17 21:39:00,50.7,50.4,28.11,North,0,12.0,16.0,99,0.00,,,0.02,meteohub,2013-04-18 02:39:00,
2013-04-17 21:44:00,50.5,50.2,28.11,NW,315,9.0,16.0,99,0.00,,,0.02,meteohub,2013-04-18 02:44:00,
2013-04-17 21:49:00,50.2,49.8,28.11,West,270,15.0,16.0,99,0.00,,,0.02,meteohub,2013-04-18 02:49:00,
2013-04-17 21:54:00,50.2,49.8,28.12,WNW,293,11.0,16.0,99,0.00,,,0.02,meteohub,2013-04-18 02:54:00,
2013-04-17 21:59:00,50.2,49.8,28.13,NW,315,11.0,16.0,99,0.00,,,0.02,meteohub,2013-04-18 02:59:00,
2013-04-17 22:04:00,50.4,50.0,28.14,NW,315,14.0,15.0,99,0.00,,,0.02,meteohub,2013-04-18 03:04:00,
2013-04-17 22:09:00,49.6,49.5,28.15,NW,315,15.0,16.0,99,0.00,,,0.02,meteohub,2013-04-18 03:09:00,
2013-04-17 22:14:00,49.6,49.5,28.15,NE,45,15.0,17.0,99,0.00,,,0.02,meteohub,2013-04-18 03:14:00,
2013-04-17 22:19:00,49.6,49.5,28.14,North,0,15.0,17.0,99,0.00,,,0.02,meteohub,2013-04-18 03:19:00,
2013-04-17 22:24:00,49.3,49.1,28.14,NW,315,15.0,17.0,99,0.00,,,0.02,meteohub,2013-04-18 03:24:00,
2013-04-17 22:29:00,48.9,48.7,28.15,WNW,293,12.0,17.0,99,0.00,,,0.02,meteohub,2013-04-18 03:29:00,
2013-04-17 22:34:00,48.4,48.2,28.15,NW,315,17.0,17.0,99,0.00,,,0.02,meteohub,2013-04-18 03:34:00,
2013-04-17 22:39:00,48.2,48.0,28.15,North,0,9.0,17.0,99,0.00,,,0.02,meteohub,2013-04-18 03:39:00,
2013-04-17 22:44:00,48.0,47.8,28.16,North,0,11.0,21.0,99,0.00,,,0.02,meteohub,2013-04-18 03:44:00,
2013-04-17 22:49:00,47.5,47.3,28.16,NW,315,15.0,21.0,99,0.00,,,0.02,meteohub,2013-04-18 03:49:00,
2013-04-17 22:54:00,47.3,47.1,28.16,North,0,20.0,21.0,99,0.00,,,0.02,meteohub,2013-04-18 03:54:00,
2013-04-17 22:59:00,47.5,47.3,28.15,NE,45,21.0,27.0,99,0.00,,,0.02,meteohub,2013-04-18 03:59:00,
2013-04-17 23:01:00,47.1,46.9,28.15,North,0,22.0,27.0,99,0.00,,,0.02,meteohub,2013-04-18 04:01:00,
2013-04-17 23:02:00,47.1,46.9,28.15,NW,315,14.0,27.0,99,0.00,,,0.02,meteohub,2013-04-18 04:02:00,
2013-04-17 23:07:00,47.1,46.9,28.15,North,0,15.0,24.0,99,0.00,,,0.02,meteohub,2013-04-18 04:07:00,
2013-04-17 23:12:00,47.1,46.9,28.16,North,0,19.0,24.0,99,0.00,,,0.02,meteohub,2013-04-18 04:12:00,
2013-04-17 23:17:00,47.3,47.1,28.17,West,270,11.0,24.0,99,0.00,,,0.02,meteohub,2013-04-18 04:17:00,
2013-04-17 23:22:00,47.1,46.9,28.18,WNW,293,13.0,20.0,99,0.00,,,0.02,meteohub,2013-04-18 04:22:00,
2013-04-17 23:27:00,46.8,46.6,28.19,West,270,18.0,19.0,99,0.00,,,0.02,meteohub,2013-04-18 04:27:00,
2013-04-17 23:32:00,46.6,46.4,28.20,NNW,338,13.0,18.0,99,0.00,,,0.02,meteohub,2013-04-18 04:32:00,
2013-04-17 23:37:00,46.9,46.8,28.20,NW,315,11.0,20.0,99,0.00,,,0.02,meteohub,2013-04-18 04:37:00,
2013-04-17 23:42:00,46.8,46.6,28.20,NW,315,15.0,20.0,99,0.00,,,0.02,meteohub,2013-04-18 04:42:00,
2013-04-17 23:47:00,46.4,46.2,28.21,North,0,23.0,23.0,99,0.00,,,0.02,meteohub,2013-04-18 04:47:00,
2013-04-17 23:52:00,46.2,46.0,28.22,NW,315,17.0,23.0,99,0.00,,,0.02,meteohub,2013-04-18 04:52:00,
2013-04-17 23:57:00,46.2,46.0,28.23,NW,315,13.0,25.0,99,0.01,,,0.04,meteohub,2013-04-18 04:57:00,